sensor_id;sensor_type;location;lat;lon;timestamp;temperature;humidity
27858;DHT22;16852;51.446;6.528;2023-05-07T00:01:52;17.70;99.90
27858;DHT22;16852;51.446;6.528;2023-05-07T00:03:53;17.60;99.90
27858;DHT22;16852;51.446;6.528;2023-05-07T00:05:54;17.40;99.90
27858;DHT22;16852;51.446;6.528;2023-05-07T00:07:54;17.30;99.90
27858;DHT22;16852;51.446;6.528;2023-05-07T00:09:55;17.20;99.90
27858;DHT22;16852;51.446;6.528;2023-05-07T00:11:56;17.10;99.90
27858;DHT22;16852;51.446;6.528;2023-05-07T00:13:56;17.00;99.90
27858;DHT22;16852;51.446;6.528;2023-05-07T00:15:57;17.00;99.90
27858;DHT22;16852;51.446;6.528;2023-05-07T00:17:57;17.00;99.90
27858;DHT22;16852;51.446;6.528;2023-05-07T00:19:59;17.00;99.90
27858;DHT22;16852;51.446;6.528;2023-05-07T00:22:00;17.00;99.90
27858;DHT22;16852;51.446;6.528;2023-05-07T00:24:01;17.00;99.90
27858;DHT22;16852;51.446;6.528;2023-05-07T00:26:01;17.00;99.90
27858;DHT22;16852;51.446;6.528;2023-05-07T00:28:02;17.00;99.90
27858;DHT22;16852;51.446;6.528;2023-05-07T00:30:04;17.00;99.90
27858;DHT22;16852;51.446;6.528;2023-05-07T00:32:05;17.00;99.90
27858;DHT22;16852;51.446;6.528;2023-05-07T00:34:05;17.00;99.90
27858;DHT22;16852;51.446;6.528;2023-05-07T00:36:06;17.10;99.90
27858;DHT22;16852;51.446;6.528;2023-05-07T00:38:07;17.00;99.90
27858;DHT22;16852;51.446;6.528;2023-05-07T00:40:08;17.00;99.90
27858;DHT22;16852;51.446;6.528;2023-05-07T00:42:09;17.10;99.90
27858;DHT22;16852;51.446;6.528;2023-05-07T00:44:10;17.10;99.90
27858;DHT22;16852;51.446;6.528;2023-05-07T00:46:11;17.10;99.90
27858;DHT22;16852;51.446;6.528;2023-05-07T00:48:12;17.10;99.90
27858;DHT22;16852;51.446;6.528;2023-05-07T00:50:13;17.10;99.90
27858;DHT22;16852;51.446;6.528;2023-05-07T00:52:16;17.10;99.90
27858;DHT22;16852;51.446;6.528;2023-05-07T00:54:16;17.10;99.90
27858;DHT22;16852;51.446;6.528;2023-05-07T00:56:17;17.10;99.90
27858;DHT22;16852;51.446;6.528;2023-05-07T00:58:18;17.10;99.90
27858;DHT22;16852;51.446;6.528;2023-05-07T01:00:20;17.10;99.90
27858;DHT22;16852;51.446;6.528;2023-05-07T01:02:21;17.00;99.90
27858;DHT22;16852;51.446;6.528;2023-05-07T01:04:22;16.90;99.90
27858;DHT22;16852;51.446;6.528;2023-05-07T01:06:23;16.90;99.90
27858;DHT22;16852;51.446;6.528;2023-05-07T01:08:26;17.00;99.90
27858;DHT22;16852;51.446;6.528;2023-05-07T01:10:29;17.00;99.90
27858;DHT22;16852;51.446;6.528;2023-05-07T01:12:31;17.00;99.90
27858;DHT22;16852;51.446;6.528;2023-05-07T01:14:32;17.00;99.90
27858;DHT22;16852;51.446;6.528;2023-05-07T01:16:33;17.10;99.90
27858;DHT22;16852;51.446;6.528;2023-05-07T01:18:34;17.10;99.90
27858;DHT22;16852;51.446;6.528;2023-05-07T01:20:34;17.10;99.90
27858;DHT22;16852;51.446;6.528;2023-05-07T01:22:39;17.10;99.90
27858;DHT22;16852;51.446;6.528;2023-05-07T01:24:40;17.10;99.90
27858;DHT22;16852;51.446;6.528;2023-05-07T01:26:43;17.10;99.90
27858;DHT22;16852;51.446;6.528;2023-05-07T01:28:45;17.20;99.90
27858;DHT22;16852;51.446;6.528;2023-05-07T01:30:53;17.20;99.90
27858;DHT22;16852;51.446;6.528;2023-05-07T01:33:06;17.20;99.90
27858;DHT22;16852;51.446;6.528;2023-05-07T01:35:12;17.20;99.90
27858;DHT22;16852;51.446;6.528;2023-05-07T01:37:14;17.20;99.90
27858;DHT22;16852;51.446;6.528;2023-05-07T01:39:15;17.20;99.90
27858;DHT22;16852;51.446;6.528;2023-05-07T01:41:16;17.30;99.90
27858;DHT22;16852;51.446;6.528;2023-05-07T01:43:17;17.30;99.90
27858;DHT22;16852;51.446;6.528;2023-05-07T01:45:18;17.30;99.90
27858;DHT22;16852;51.446;6.528;2023-05-07T01:47:19;17.30;99.90
27858;DHT22;16852;51.446;6.528;2023-05-07T01:49:21;17.30;99.90
27858;DHT22;16852;51.446;6.528;2023-05-07T01:51:21;17.30;99.90
27858;DHT22;16852;51.446;6.528;2023-05-07T01:53:22;17.30;99.90
27858;DHT22;16852;51.446;6.528;2023-05-07T01:55:23;17.30;99.90
27858;DHT22;16852;51.446;6.528;2023-05-07T01:57:23;17.30;99.90
27858;DHT22;16852;51.446;6.528;2023-05-07T01:59:24;17.30;99.90
27858;DHT22;16852;51.446;6.528;2023-05-07T02:01:25;17.40;99.90
27858;DHT22;16852;51.446;6.528;2023-05-07T02:03:26;17.30;99.90
27858;DHT22;16852;51.446;6.528;2023-05-07T02:05:26;17.30;99.90
27858;DHT22;16852;51.446;6.528;2023-05-07T02:07:27;17.30;99.90
27858;DHT22;16852;51.446;6.528;2023-05-07T02:09:28;17.30;99.90
27858;DHT22;16852;51.446;6.528;2023-05-07T02:11:28;17.30;99.90
27858;DHT22;16852;51.446;6.528;2023-05-07T02:13:31;17.30;99.90
27858;DHT22;16852;51.446;6.528;2023-05-07T02:15:32;17.30;99.90
27858;DHT22;16852;51.446;6.528;2023-05-07T02:17:33;17.30;99.90
27858;DHT22;16852;51.446;6.528;2023-05-07T02:19:34;17.30;99.90
27858;DHT22;16852;51.446;6.528;2023-05-07T02:21:35;17.30;99.90
27858;DHT22;16852;51.446;6.528;2023-05-07T02:23:36;17.20;99.90
27858;DHT22;16852;51.446;6.528;2023-05-07T02:25:36;17.20;99.90
27858;DHT22;16852;51.446;6.528;2023-05-07T02:27:37;17.10;99.90
27858;DHT22;16852;51.446;6.528;2023-05-07T02:29:37;17.00;99.90
27858;DHT22;16852;51.446;6.528;2023-05-07T02:31:38;16.80;99.90
27858;DHT22;16852;51.446;6.528;2023-05-07T02:33:38;16.70;99.90
27858;DHT22;16852;51.446;6.528;2023-05-07T02:35:39;16.60;99.90
27858;DHT22;16852;51.446;6.528;2023-05-07T02:37:40;16.60;99.90
27858;DHT22;16852;51.446;6.528;2023-05-07T02:39:40;16.50;99.90
27858;DHT22;16852;51.446;6.528;2023-05-07T02:41:41;16.40;99.90
27858;DHT22;16852;51.446;6.528;2023-05-07T02:43:41;16.30;99.90
27858;DHT22;16852;51.446;6.528;2023-05-07T02:45:42;16.20;99.90
27858;DHT22;16852;51.446;6.528;2023-05-07T02:47:43;16.10;99.90
27858;DHT22;16852;51.446;6.528;2023-05-07T02:49:44;16.10;99.90
27858;DHT22;16852;51.446;6.528;2023-05-07T02:51:44;16.00;99.90
27858;DHT22;16852;51.446;6.528;2023-05-07T02:53:45;16.00;99.90
27858;DHT22;16852;51.446;6.528;2023-05-07T02:55:46;15.90;99.90
27858;DHT22;16852;51.446;6.528;2023-05-07T02:57:47;15.90;99.90
27858;DHT22;16852;51.446;6.528;2023-05-07T02:59:47;15.80;99.90
27858;DHT22;16852;51.446;6.528;2023-05-07T03:01:48;15.80;99.90
27858;DHT22;16852;51.446;6.528;2023-05-07T03:03:48;15.80;99.90
27858;DHT22;16852;51.446;6.528;2023-05-07T03:05:49;15.70;99.90
27858;DHT22;16852;51.446;6.528;2023-05-07T03:07:49;15.70;99.90
27858;DHT22;16852;51.446;6.528;2023-05-07T03:09:50;15.70;99.90
27858;DHT22;16852;51.446;6.528;2023-05-07T03:11:51;15.80;99.90
27858;DHT22;16852;51.446;6.528;2023-05-07T03:13:52;15.80;99.90
27858;DHT22;16852;51.446;6.528;2023-05-07T03:15:52;15.90;99.90
27858;DHT22;16852;51.446;6.528;2023-05-07T03:17:53;15.90;99.90
27858;DHT22;16852;51.446;6.528;2023-05-07T03:19:53;15.90;99.90
27858;DHT22;16852;51.446;6.528;2023-05-07T03:21:54;15.90;99.90
27858;DHT22;16852;51.446;6.528;2023-05-07T03:23:55;15.90;99.90
27858;DHT22;16852;51.446;6.528;2023-05-07T03:25:56;15.90;99.90
27858;DHT22;16852;51.446;6.528;2023-05-07T03:27:57;15.90;99.90
27858;DHT22;16852;51.446;6.528;2023-05-07T03:29:57;16.00;99.90
27858;DHT22;16852;51.446;6.528;2023-05-07T03:31:58;16.00;99.90
27858;DHT22;16852;51.446;6.528;2023-05-07T03:33:59;16.00;99.90
27858;DHT22;16852;51.446;6.528;2023-05-07T03:35:59;16.00;99.90
27858;DHT22;16852;51.446;6.528;2023-05-07T03:38:00;16.10;99.90
27858;DHT22;16852;51.446;6.528;2023-05-07T03:40:01;16.10;99.90
27858;DHT22;16852;51.446;6.528;2023-05-07T03:42:02;16.10;99.90
27858;DHT22;16852;51.446;6.528;2023-05-07T03:44:03;16.20;99.90
27858;DHT22;16852;51.446;6.528;2023-05-07T03:46:04;16.20;99.90
27858;DHT22;16852;51.446;6.528;2023-05-07T03:48:05;16.20;99.90
27858;DHT22;16852;51.446;6.528;2023-05-07T03:50:05;16.30;99.90
27858;DHT22;16852;51.446;6.528;2023-05-07T03:52:06;16.30;99.90
27858;DHT22;16852;51.446;6.528;2023-05-07T03:54:07;16.30;99.90
27858;DHT22;16852;51.446;6.528;2023-05-07T03:56:08;16.30;99.90
27858;DHT22;16852;51.446;6.528;2023-05-07T03:58:08;16.20;99.90
27858;DHT22;16852;51.446;6.528;2023-05-07T04:00:09;16.10;99.90
27858;DHT22;16852;51.446;6.528;2023-05-07T04:02:10;16.10;99.90
27858;DHT22;16852;51.446;6.528;2023-05-07T04:04:11;16.00;99.90
27858;DHT22;16852;51.446;6.528;2023-05-07T04:06:11;15.90;99.90
27858;DHT22;16852;51.446;6.528;2023-05-07T04:08:12;15.70;99.90
27858;DHT22;16852;51.446;6.528;2023-05-07T04:10:13;15.70;99.90
27858;DHT22;16852;51.446;6.528;2023-05-07T04:12:14;15.70;99.90
27858;DHT22;16852;51.446;6.528;2023-05-07T04:14:15;15.60;99.90
27858;DHT22;16852;51.446;6.528;2023-05-07T04:16:15;15.50;99.90
27858;DHT22;16852;51.446;6.528;2023-05-07T04:18:16;15.50;99.90
27858;DHT22;16852;51.446;6.528;2023-05-07T04:20:17;15.50;99.90
27858;DHT22;16852;51.446;6.528;2023-05-07T04:22:18;15.60;99.90
27858;DHT22;16852;51.446;6.528;2023-05-07T04:24:18;15.60;99.90
27858;DHT22;16852;51.446;6.528;2023-05-07T04:26:19;15.70;99.90
27858;DHT22;16852;51.446;6.528;2023-05-07T04:28:21;15.70;99.90
27858;DHT22;16852;51.446;6.528;2023-05-07T04:30:22;15.70;99.90
27858;DHT22;16852;51.446;6.528;2023-05-07T04:32:22;15.70;99.90
27858;DHT22;16852;51.446;6.528;2023-05-07T04:34:25;15.80;99.90
27858;DHT22;16852;51.446;6.528;2023-05-07T04:36:25;15.90;99.90
27858;DHT22;16852;51.446;6.528;2023-05-07T04:38:30;15.90;99.90
27858;DHT22;16852;51.446;6.528;2023-05-07T04:40:31;16.00;99.90
27858;DHT22;16852;51.446;6.528;2023-05-07T04:42:32;16.00;99.90
27858;DHT22;16852;51.446;6.528;2023-05-07T04:44:32;16.10;99.90
27858;DHT22;16852;51.446;6.528;2023-05-07T04:46:33;16.10;99.90
27858;DHT22;16852;51.446;6.528;2023-05-07T04:48:33;16.10;99.90
27858;DHT22;16852;51.446;6.528;2023-05-07T04:50:34;16.20;99.90
27858;DHT22;16852;51.446;6.528;2023-05-07T04:52:34;16.20;99.90
27858;DHT22;16852;51.446;6.528;2023-05-07T04:54:35;16.30;99.90
27858;DHT22;16852;51.446;6.528;2023-05-07T04:56:36;16.30;99.90
27858;DHT22;16852;51.446;6.528;2023-05-07T04:58:37;16.30;99.90
27858;DHT22;16852;51.446;6.528;2023-05-07T05:00:37;16.30;99.90
27858;DHT22;16852;51.446;6.528;2023-05-07T05:02:39;16.30;99.90
27858;DHT22;16852;51.446;6.528;2023-05-07T05:04:41;16.20;99.90
27858;DHT22;16852;51.446;6.528;2023-05-07T05:06:42;16.20;99.90
27858;DHT22;16852;51.446;6.528;2023-05-07T05:08:42;16.20;99.90
27858;DHT22;16852;51.446;6.528;2023-05-07T05:10:43;16.10;99.90
27858;DHT22;16852;51.446;6.528;2023-05-07T05:12:44;16.10;99.90
27858;DHT22;16852;51.446;6.528;2023-05-07T05:14:44;16.10;99.90
27858;DHT22;16852;51.446;6.528;2023-05-07T05:16:45;16.10;99.90
27858;DHT22;16852;51.446;6.528;2023-05-07T05:18:45;16.10;99.90
27858;DHT22;16852;51.446;6.528;2023-05-07T05:20:46;16.20;99.90
27858;DHT22;16852;51.446;6.528;2023-05-07T05:22:47;16.20;99.90
27858;DHT22;16852;51.446;6.528;2023-05-07T05:24:47;16.20;99.90
27858;DHT22;16852;51.446;6.528;2023-05-07T05:26:48;16.30;99.90
27858;DHT22;16852;51.446;6.528;2023-05-07T05:28:49;16.40;99.90
27858;DHT22;16852;51.446;6.528;2023-05-07T05:30:50;16.40;99.90
27858;DHT22;16852;51.446;6.528;2023-05-07T05:32:50;16.50;99.90
27858;DHT22;16852;51.446;6.528;2023-05-07T05:34:51;16.50;99.90
27858;DHT22;16852;51.446;6.528;2023-05-07T05:36:51;16.60;99.90
27858;DHT22;16852;51.446;6.528;2023-05-07T05:38:52;16.70;99.90
27858;DHT22;16852;51.446;6.528;2023-05-07T05:40:52;16.70;99.90
27858;DHT22;16852;51.446;6.528;2023-05-07T05:42:54;16.70;99.90
27858;DHT22;16852;51.446;6.528;2023-05-07T05:44:55;16.70;99.90
27858;DHT22;16852;51.446;6.528;2023-05-07T05:46:55;16.80;99.90
27858;DHT22;16852;51.446;6.528;2023-05-07T05:48:57;16.90;99.90
27858;DHT22;16852;51.446;6.528;2023-05-07T05:50:58;16.80;99.90
27858;DHT22;16852;51.446;6.528;2023-05-07T05:52:59;16.90;99.90
27858;DHT22;16852;51.446;6.528;2023-05-07T05:54:59;16.90;99.90
27858;DHT22;16852;51.446;6.528;2023-05-07T05:57:00;16.90;99.90
27858;DHT22;16852;51.446;6.528;2023-05-07T05:59:00;17.00;99.90
27858;DHT22;16852;51.446;6.528;2023-05-07T06:01:01;17.00;99.90
27858;DHT22;16852;51.446;6.528;2023-05-07T06:03:03;17.10;99.90
27858;DHT22;16852;51.446;6.528;2023-05-07T06:05:04;17.10;99.90
27858;DHT22;16852;51.446;6.528;2023-05-07T06:07:04;17.20;99.90
27858;DHT22;16852;51.446;6.528;2023-05-07T06:09:05;17.20;99.90
27858;DHT22;16852;51.446;6.528;2023-05-07T06:11:06;17.20;99.90
27858;DHT22;16852;51.446;6.528;2023-05-07T06:13:07;17.20;99.90
27858;DHT22;16852;51.446;6.528;2023-05-07T06:15:08;17.30;99.90
27858;DHT22;16852;51.446;6.528;2023-05-07T06:17:09;17.30;99.90
27858;DHT22;16852;51.446;6.528;2023-05-07T06:19:10;17.40;99.90
27858;DHT22;16852;51.446;6.528;2023-05-07T06:21:10;17.40;99.90
27858;DHT22;16852;51.446;6.528;2023-05-07T06:23:11;17.40;99.90
27858;DHT22;16852;51.446;6.528;2023-05-07T06:25:11;17.40;99.90
27858;DHT22;16852;51.446;6.528;2023-05-07T06:27:12;17.40;99.90
27858;DHT22;16852;51.446;6.528;2023-05-07T06:29:12;17.50;99.90
27858;DHT22;16852;51.446;6.528;2023-05-07T06:31:18;17.50;99.90
27858;DHT22;16852;51.446;6.528;2023-05-07T06:33:20;17.50;99.90
27858;DHT22;16852;51.446;6.528;2023-05-07T06:35:21;17.60;99.90
27858;DHT22;16852;51.446;6.528;2023-05-07T06:37:21;17.60;99.90
27858;DHT22;16852;51.446;6.528;2023-05-07T06:39:22;17.60;99.90
27858;DHT22;16852;51.446;6.528;2023-05-07T06:41:22;17.60;99.90
27858;DHT22;16852;51.446;6.528;2023-05-07T06:43:23;17.60;99.90
27858;DHT22;16852;51.446;6.528;2023-05-07T06:45:24;17.60;99.90
27858;DHT22;16852;51.446;6.528;2023-05-07T06:47:25;17.60;99.90
27858;DHT22;16852;51.446;6.528;2023-05-07T06:49:26;17.60;99.90
27858;DHT22;16852;51.446;6.528;2023-05-07T06:51:26;17.60;99.90
27858;DHT22;16852;51.446;6.528;2023-05-07T06:53:27;17.40;99.90
27858;DHT22;16852;51.446;6.528;2023-05-07T06:55:29;17.40;99.90
27858;DHT22;16852;51.446;6.528;2023-05-07T06:57:30;17.40;99.90
27858;DHT22;16852;51.446;6.528;2023-05-07T06:59:30;17.40;99.90
27858;DHT22;16852;51.446;6.528;2023-05-07T07:01:31;17.50;99.90
27858;DHT22;16852;51.446;6.528;2023-05-07T07:03:31;17.50;99.90
27858;DHT22;16852;51.446;6.528;2023-05-07T07:05:32;17.50;99.90
27858;DHT22;16852;51.446;6.528;2023-05-07T07:07:32;17.50;99.90
27858;DHT22;16852;51.446;6.528;2023-05-07T07:09:33;17.40;99.90
27858;DHT22;16852;51.446;6.528;2023-05-07T07:11:34;17.50;99.90
27858;DHT22;16852;51.446;6.528;2023-05-07T07:13:34;17.50;99.90
27858;DHT22;16852;51.446;6.528;2023-05-07T07:15:35;17.60;99.90
27858;DHT22;16852;51.446;6.528;2023-05-07T07:17:35;17.60;99.90
27858;DHT22;16852;51.446;6.528;2023-05-07T07:19:36;17.60;99.90
27858;DHT22;16852;51.446;6.528;2023-05-07T07:21:37;17.60;99.90
27858;DHT22;16852;51.446;6.528;2023-05-07T07:23:38;17.70;99.90
27858;DHT22;16852;51.446;6.528;2023-05-07T07:25:39;17.80;99.90
27858;DHT22;16852;51.446;6.528;2023-05-07T07:27:39;17.90;99.90
27858;DHT22;16852;51.446;6.528;2023-05-07T07:29:40;18.00;99.90
27858;DHT22;16852;51.446;6.528;2023-05-07T07:31:40;18.00;99.90
27858;DHT22;16852;51.446;6.528;2023-05-07T07:33:41;18.00;99.90
27858;DHT22;16852;51.446;6.528;2023-05-07T07:35:42;18.00;99.90
27858;DHT22;16852;51.446;6.528;2023-05-07T07:37:42;18.00;99.90
27858;DHT22;16852;51.446;6.528;2023-05-07T07:39:43;18.00;99.90
27858;DHT22;16852;51.446;6.528;2023-05-07T07:41:44;18.10;99.90
27858;DHT22;16852;51.446;6.528;2023-05-07T07:43:44;18.20;99.90
27858;DHT22;16852;51.446;6.528;2023-05-07T07:45:46;18.30;99.90
27858;DHT22;16852;51.446;6.528;2023-05-07T07:47:47;18.30;99.90
27858;DHT22;16852;51.446;6.528;2023-05-07T07:49:48;18.40;99.90
27858;DHT22;16852;51.446;6.528;2023-05-07T07:51:48;18.60;99.90
27858;DHT22;16852;51.446;6.528;2023-05-07T07:53:49;18.60;99.90
27858;DHT22;16852;51.446;6.528;2023-05-07T07:55:50;18.70;99.90
27858;DHT22;16852;51.446;6.528;2023-05-07T07:57:50;18.80;99.90
27858;DHT22;16852;51.446;6.528;2023-05-07T07:59:51;18.90;99.90
27858;DHT22;16852;51.446;6.528;2023-05-07T08:01:51;18.90;99.90
27858;DHT22;16852;51.446;6.528;2023-05-07T08:03:55;19.00;99.90
27858;DHT22;16852;51.446;6.528;2023-05-07T08:05:58;19.00;99.90
27858;DHT22;16852;51.446;6.528;2023-05-07T08:07:58;19.10;99.90
27858;DHT22;16852;51.446;6.528;2023-05-07T08:09:59;19.10;99.90
27858;DHT22;16852;51.446;6.528;2023-05-07T08:11:59;19.10;99.90
27858;DHT22;16852;51.446;6.528;2023-05-07T08:14:01;19.10;99.90
27858;DHT22;16852;51.446;6.528;2023-05-07T08:16:02;19.20;99.90
27858;DHT22;16852;51.446;6.528;2023-05-07T08:18:02;19.20;99.90
27858;DHT22;16852;51.446;6.528;2023-05-07T08:20:03;19.20;99.90
27858;DHT22;16852;51.446;6.528;2023-05-07T08:22:04;19.20;99.90
27858;DHT22;16852;51.446;6.528;2023-05-07T08:24:06;19.20;99.90
27858;DHT22;16852;51.446;6.528;2023-05-07T08:26:08;19.20;99.90
27858;DHT22;16852;51.446;6.528;2023-05-07T08:28:09;19.30;99.90
27858;DHT22;16852;51.446;6.528;2023-05-07T08:30:10;19.40;99.90
27858;DHT22;16852;51.446;6.528;2023-05-07T08:32:11;19.40;99.90
27858;DHT22;16852;51.446;6.528;2023-05-07T08:34:11;19.50;99.90
27858;DHT22;16852;51.446;6.528;2023-05-07T08:36:12;19.50;99.90
27858;DHT22;16852;51.446;6.528;2023-05-07T08:38:12;19.60;99.90
27858;DHT22;16852;51.446;6.528;2023-05-07T08:40:13;19.70;99.90
27858;DHT22;16852;51.446;6.528;2023-05-07T08:42:16;19.70;99.90
27858;DHT22;16852;51.446;6.528;2023-05-07T08:44:21;19.80;99.90
27858;DHT22;16852;51.446;6.528;2023-05-07T08:46:22;19.80;99.90
27858;DHT22;16852;51.446;6.528;2023-05-07T08:48:25;19.90;99.90
27858;DHT22;16852;51.446;6.528;2023-05-07T08:50:27;20.00;99.90
27858;DHT22;16852;51.446;6.528;2023-05-07T08:52:28;20.00;99.90
27858;DHT22;16852;51.446;6.528;2023-05-07T08:54:29;20.10;99.90
27858;DHT22;16852;51.446;6.528;2023-05-07T08:56:31;20.10;99.90
27858;DHT22;16852;51.446;6.528;2023-05-07T08:58:31;20.30;99.90
27858;DHT22;16852;51.446;6.528;2023-05-07T09:00:32;20.30;99.90
27858;DHT22;16852;51.446;6.528;2023-05-07T09:02:34;20.40;99.90
27858;DHT22;16852;51.446;6.528;2023-05-07T09:04:35;20.40;99.90
27858;DHT22;16852;51.446;6.528;2023-05-07T09:06:36;20.50;99.90
27858;DHT22;16852;51.446;6.528;2023-05-07T09:08:38;20.60;99.90
27858;DHT22;16852;51.446;6.528;2023-05-07T09:10:38;20.70;99.90
27858;DHT22;16852;51.446;6.528;2023-05-07T09:12:39;20.60;99.90
27858;DHT22;16852;51.446;6.528;2023-05-07T09:14:40;20.60;99.90
27858;DHT22;16852;51.446;6.528;2023-05-07T09:16:41;20.70;99.90
27858;DHT22;16852;51.446;6.528;2023-05-07T09:18:42;20.80;99.90
27858;DHT22;16852;51.446;6.528;2023-05-07T09:20:43;20.80;99.90
27858;DHT22;16852;51.446;6.528;2023-05-07T09:22:44;20.80;99.90
27858;DHT22;16852;51.446;6.528;2023-05-07T09:24:49;20.90;99.90
27858;DHT22;16852;51.446;6.528;2023-05-07T09:26:50;21.10;99.90
27858;DHT22;16852;51.446;6.528;2023-05-07T09:28:51;21.20;99.90
27858;DHT22;16852;51.446;6.528;2023-05-07T09:30:51;21.30;99.90
27858;DHT22;16852;51.446;6.528;2023-05-07T09:32:52;21.20;99.90
27858;DHT22;16852;51.446;6.528;2023-05-07T09:34:53;21.20;99.90
27858;DHT22;16852;51.446;6.528;2023-05-07T09:36:54;21.30;99.90
27858;DHT22;16852;51.446;6.528;2023-05-07T09:38:55;21.40;99.90
27858;DHT22;16852;51.446;6.528;2023-05-07T09:43:11;21.50;99.90
27858;DHT22;16852;51.446;6.528;2023-05-07T09:45:13;21.60;99.90
27858;DHT22;16852;51.446;6.528;2023-05-07T09:47:19;21.60;99.90
27858;DHT22;16852;51.446;6.528;2023-05-07T09:49:23;21.70;99.90
27858;DHT22;16852;51.446;6.528;2023-05-07T09:51:29;21.70;99.90
27858;DHT22;16852;51.446;6.528;2023-05-07T09:53:30;21.80;99.90
27858;DHT22;16852;51.446;6.528;2023-05-07T09:55:31;21.90;99.90
27858;DHT22;16852;51.446;6.528;2023-05-07T09:57:33;21.90;99.90
27858;DHT22;16852;51.446;6.528;2023-05-07T09:59:34;21.90;99.90
27858;DHT22;16852;51.446;6.528;2023-05-07T10:01:37;22.00;99.90
27858;DHT22;16852;51.446;6.528;2023-05-07T10:03:41;22.00;99.90
27858;DHT22;16852;51.446;6.528;2023-05-07T10:05:42;22.00;99.90
27858;DHT22;16852;51.446;6.528;2023-05-07T10:07:45;22.10;99.90
27858;DHT22;16852;51.446;6.528;2023-05-07T10:09:46;22.10;99.90
27858;DHT22;16852;51.446;6.528;2023-05-07T10:11:49;22.20;99.90
27858;DHT22;16852;51.446;6.528;2023-05-07T10:13:50;22.30;99.90
27858;DHT22;16852;51.446;6.528;2023-05-07T10:15:52;22.40;99.90
27858;DHT22;16852;51.446;6.528;2023-05-07T10:17:54;22.40;99.90
27858;DHT22;16852;51.446;6.528;2023-05-07T10:19:55;22.50;99.90
27858;DHT22;16852;51.446;6.528;2023-05-07T10:22:01;22.50;99.90
27858;DHT22;16852;51.446;6.528;2023-05-07T10:24:09;22.60;99.90
27858;DHT22;16852;51.446;6.528;2023-05-07T10:26:14;22.60;99.90
27858;DHT22;16852;51.446;6.528;2023-05-07T10:28:16;22.70;99.90
27858;DHT22;16852;51.446;6.528;2023-05-07T10:32:40;22.90;99.90
27858;DHT22;16852;51.446;6.528;2023-05-07T10:34:44;22.90;99.90
27858;DHT22;16852;51.446;6.528;2023-05-07T10:36:46;23.00;99.90
27858;DHT22;16852;51.446;6.528;2023-05-07T10:38:47;23.00;99.90
27858;DHT22;16852;51.446;6.528;2023-05-07T10:40:47;23.10;99.90
27858;DHT22;16852;51.446;6.528;2023-05-07T10:43:04;23.00;99.90
27858;DHT22;16852;51.446;6.528;2023-05-07T10:45:12;23.10;99.90
27858;DHT22;16852;51.446;6.528;2023-05-07T10:47:16;23.10;99.90
27858;DHT22;16852;51.446;6.528;2023-05-07T10:49:18;23.20;99.90
27858;DHT22;16852;51.446;6.528;2023-05-07T10:51:21;23.20;99.90
27858;DHT22;16852;51.446;6.528;2023-05-07T10:53:22;23.10;99.90
27858;DHT22;16852;51.446;6.528;2023-05-07T10:55:24;23.20;99.90
27858;DHT22;16852;51.446;6.528;2023-05-07T10:59:33;23.20;99.90
27858;DHT22;16852;51.446;6.528;2023-05-07T11:01:52;23.30;99.90
27858;DHT22;16852;51.446;6.528;2023-05-07T11:04:12;23.40;99.90
27858;DHT22;16852;51.446;6.528;2023-05-07T11:06:15;23.30;99.90
27858;DHT22;16852;51.446;6.528;2023-05-07T11:08:16;23.40;99.90
27858;DHT22;16852;51.446;6.528;2023-05-07T11:10:17;23.40;99.90
27858;DHT22;16852;51.446;6.528;2023-05-07T11:14:44;23.40;99.90
27858;DHT22;16852;51.446;6.528;2023-05-07T11:16:46;23.30;99.90
27858;DHT22;16852;51.446;6.528;2023-05-07T11:18:48;23.40;99.90
27858;DHT22;16852;51.446;6.528;2023-05-07T11:22:52;23.50;99.90
27858;DHT22;16852;51.446;6.528;2023-05-07T11:24:53;23.50;99.90
27858;DHT22;16852;51.446;6.528;2023-05-07T11:26:55;23.50;99.90
27858;DHT22;16852;51.446;6.528;2023-05-07T11:28:56;23.50;99.90
27858;DHT22;16852;51.446;6.528;2023-05-07T11:30:57;23.50;99.90
27858;DHT22;16852;51.446;6.528;2023-05-07T11:32:58;23.40;99.90
27858;DHT22;16852;51.446;6.528;2023-05-07T11:35:00;23.30;99.90
27858;DHT22;16852;51.446;6.528;2023-05-07T11:37:00;23.40;99.90
27858;DHT22;16852;51.446;6.528;2023-05-07T11:39:02;23.50;99.90
27858;DHT22;16852;51.446;6.528;2023-05-07T11:41:02;23.40;99.90
27858;DHT22;16852;51.446;6.528;2023-05-07T11:43:11;23.40;99.90
27858;DHT22;16852;51.446;6.528;2023-05-07T11:45:11;23.50;99.90
27858;DHT22;16852;51.446;6.528;2023-05-07T11:47:17;23.50;99.90
27858;DHT22;16852;51.446;6.528;2023-05-07T11:49:18;23.60;99.90
27858;DHT22;16852;51.446;6.528;2023-05-07T11:51:25;23.70;99.90
27858;DHT22;16852;51.446;6.528;2023-05-07T11:53:35;23.70;99.90
27858;DHT22;16852;51.446;6.528;2023-05-07T11:55:36;23.70;99.90
27858;DHT22;16852;51.446;6.528;2023-05-07T11:57:37;23.80;99.90
27858;DHT22;16852;51.446;6.528;2023-05-07T11:59:39;23.80;99.90
27858;DHT22;16852;51.446;6.528;2023-05-07T12:01:40;23.90;99.90
27858;DHT22;16852;51.446;6.528;2023-05-07T12:03:42;23.90;99.90
27858;DHT22;16852;51.446;6.528;2023-05-07T12:05:43;23.90;99.90
27858;DHT22;16852;51.446;6.528;2023-05-07T12:07:44;23.90;99.90
27858;DHT22;16852;51.446;6.528;2023-05-07T12:09:45;23.90;99.90
27858;DHT22;16852;51.446;6.528;2023-05-07T12:11:48;23.90;99.90
27858;DHT22;16852;51.446;6.528;2023-05-07T12:13:49;23.90;99.90
27858;DHT22;16852;51.446;6.528;2023-05-07T12:15:53;24.00;99.90
27858;DHT22;16852;51.446;6.528;2023-05-07T12:17:55;24.00;99.90
27858;DHT22;16852;51.446;6.528;2023-05-07T12:19:56;23.90;99.90
27858;DHT22;16852;51.446;6.528;2023-05-07T12:21:57;24.00;99.90
27858;DHT22;16852;51.446;6.528;2023-05-07T12:23:57;24.00;99.90
27858;DHT22;16852;51.446;6.528;2023-05-07T12:25:59;24.00;99.90
27858;DHT22;16852;51.446;6.528;2023-05-07T12:28:01;24.00;99.90
27858;DHT22;16852;51.446;6.528;2023-05-07T12:30:02;24.00;99.90
27858;DHT22;16852;51.446;6.528;2023-05-07T12:32:02;24.00;99.90
27858;DHT22;16852;51.446;6.528;2023-05-07T12:34:03;24.00;99.90
27858;DHT22;16852;51.446;6.528;2023-05-07T12:36:06;23.90;99.90
27858;DHT22;16852;51.446;6.528;2023-05-07T12:38:12;23.80;99.90
27858;DHT22;16852;51.446;6.528;2023-05-07T12:40:13;23.80;99.90
27858;DHT22;16852;51.446;6.528;2023-05-07T12:42:20;23.80;99.90
27858;DHT22;16852;51.446;6.528;2023-05-07T12:44:32;23.60;99.90
27858;DHT22;16852;51.446;6.528;2023-05-07T12:46:38;23.50;99.90
27858;DHT22;16852;51.446;6.528;2023-05-07T12:48:44;23.50;99.90
27858;DHT22;16852;51.446;6.528;2023-05-07T12:50:57;23.40;99.90
27858;DHT22;16852;51.446;6.528;2023-05-07T12:52:57;23.30;99.90
27858;DHT22;16852;51.446;6.528;2023-05-07T12:55:05;23.30;99.90
27858;DHT22;16852;51.446;6.528;2023-05-07T12:57:08;23.30;99.90
27858;DHT22;16852;51.446;6.528;2023-05-07T12:59:08;23.30;99.90